createdAt,value
2022-10-11T00:01:40.474Z,102134.69
2022-10-11T00:04:11.074Z,102139.04
2022-10-11T00:06:41.692Z,102141.32
2022-10-11T00:09:12.347Z,102140.12
2022-10-11T00:11:42.907Z,102146.44
2022-10-11T00:14:13.617Z,102147.32
2022-10-11T00:16:44.171Z,102150.58
2022-10-11T00:19:14.871Z,102153.26
2022-10-11T00:21:45.413Z,102152.09
2022-10-11T00:24:16.085Z,102154.54
2022-10-11T00:26:47.127Z,102155.15
2022-10-11T00:29:17.254Z,102159.50
2022-10-11T00:31:47.890Z,102160.10
2022-10-11T00:34:18.523Z,102163.17
2022-10-11T00:36:49.159Z,102168.20
2022-10-11T00:39:20.012Z,102166.53
2022-10-11T00:41:50.664Z,102165.25
2022-10-11T00:44:21.281Z,102167.26
2022-10-11T00:46:54.956Z,102167.61
2022-10-11T00:49:21.913Z,102166.97
2022-10-11T00:51:52.318Z,102167.36
2022-10-11T00:54:22.903Z,102169.80
2022-10-11T00:56:53.572Z,102170.29
2022-10-11T00:59:23.814Z,102171.38
2022-10-11T01:01:54.477Z,102179.46
2022-10-11T01:04:25.050Z,102183.30
2022-10-11T01:06:55.761Z,102184.44
2022-10-11T01:09:26.360Z,102180.08
2022-10-11T01:11:57.004Z,102179.91
2022-10-11T01:14:27.589Z,102183.72
2022-10-11T01:16:58.262Z,102184.03
2022-10-11T01:19:28.835Z,102180.18
2022-10-11T01:21:59.471Z,102182.42
2022-10-11T01:24:30.105Z,102178.39
2022-10-11T01:27:00.782Z,102178.99
2022-10-11T01:29:31.367Z,102180.06
2022-10-11T01:32:02.053Z,102182.71
2022-10-11T01:34:32.677Z,102188.66
2022-10-11T01:37:03.282Z,102193.51
2022-10-11T01:39:33.927Z,102197.72
2022-10-11T01:42:04.681Z,102198.03
2022-10-11T01:44:35.176Z,102198.11
2022-10-11T01:47:05.818Z,102197.54
2022-10-11T01:49:36.171Z,102198.34
2022-10-11T01:52:06.801Z,102201.35
2022-10-11T01:55:03.923Z,102205.37
2022-10-11T01:57:08.081Z,102202.99
2022-10-11T01:59:38.729Z,102204.66
2022-10-11T02:02:09.370Z,102213.24
2022-10-11T02:04:40.116Z,102208.76
2022-10-11T02:07:10.658Z,102211.50
2022-10-11T02:09:41.305Z,102212.40
2022-10-11T02:12:11.663Z,102213.31
2022-10-11T02:14:42.390Z,102211.00
2022-10-11T02:17:12.970Z,102215.43
2022-10-11T02:19:43.599Z,102213.73
2022-10-11T02:22:14.254Z,102213.63
2022-10-11T02:24:44.918Z,102211.28
2022-10-11T02:27:15.559Z,102217.17
2022-10-11T02:29:46.270Z,102217.30
2022-10-11T02:32:16.870Z,102217.14
2022-10-11T02:34:47.506Z,102219.08
2022-10-11T02:37:18.176Z,102218.56
2022-10-11T02:39:48.821Z,102220.18
2022-10-11T02:42:19.551Z,102221.63
2022-10-11T02:44:50.174Z,102224.13
2022-10-11T02:47:20.787Z,102224.47
2022-10-11T02:49:51.546Z,102222.59
2022-10-11T02:52:22.070Z,102223.90
2022-10-11T02:54:52.807Z,102222.57
2022-10-11T02:57:23.372Z,102222.27
2022-10-11T02:59:54.060Z,102224.46
2022-10-11T03:02:24.692Z,102226.05
2022-10-11T03:04:55.326Z,102230.04
2022-10-11T03:07:25.980Z,102229.80
2022-10-11T03:09:56.237Z,102232.98
2022-10-11T03:12:26.879Z,102235.74
2022-10-11T03:14:57.353Z,102239.26
2022-10-11T03:17:36.180Z,102243.33
2022-10-11T03:19:58.509Z,102244.56
2022-10-11T03:22:29.164Z,102250.04
2022-10-11T03:25:03.582Z,102249.87
2022-10-11T03:27:30.430Z,102253.10
2022-10-11T03:30:01.093Z,102254.29
2022-10-11T03:32:31.466Z,102257.24
2022-10-11T03:35:02.112Z,102261.12
2022-10-11T03:37:32.760Z,102261.74
2022-10-11T03:40:03.415Z,102264.01
2022-10-11T03:42:34.077Z,102269.84
2022-10-11T03:45:04.771Z,102273.60
2022-10-11T03:47:35.442Z,102274.70
2022-10-11T03:50:06.105Z,102273.32
2022-10-11T03:52:36.807Z,102278.83
2022-10-11T03:55:07.468Z,102282.69
2022-10-11T03:57:37.808Z,102282.52
2022-10-11T04:00:08.482Z,102286.53
2022-10-11T04:02:39.462Z,102293.38
2022-10-11T04:05:09.859Z,102296.78
2022-10-11T04:07:40.515Z,102296.23
2022-10-11T04:10:11.186Z,102291.99
2022-10-11T04:12:41.984Z,102291.54
2022-10-11T04:15:14.760Z,102295.05
2022-10-11T04:17:43.214Z,102300.30
2022-10-11T04:20:13.579Z,102305.81
2022-10-11T04:22:44.260Z,102310.96
2022-10-11T04:25:14.640Z,102313.74
2022-10-11T04:27:44.939Z,102312.66
2022-10-11T04:30:15.637Z,102317.32
2022-10-11T04:32:46.288Z,102317.66
2022-10-11T04:35:16.955Z,102323.74
2022-10-11T04:37:47.642Z,102327.52
2022-10-11T04:40:18.416Z,102329.12
2022-10-11T04:42:48.988Z,102325.79
2022-10-11T04:45:19.653Z,102328.66
2022-10-11T04:47:50.371Z,102334.14
2022-10-11T04:50:21.019Z,102331.76
2022-10-11T04:52:51.713Z,102334.23
2022-10-11T04:55:22.127Z,102336.54
2022-10-11T04:57:52.818Z,102340.75
2022-10-11T05:00:23.568Z,102338.72
2022-10-11T05:02:54.370Z,102339.87
2022-10-11T05:05:25.155Z,102348.45
2022-10-11T05:07:56.002Z,102350.13
2022-10-11T05:10:26.502Z,102352.50
2022-10-11T05:12:56.886Z,102349.39
2022-10-11T05:15:27.471Z,102349.88
2022-10-11T05:17:57.868Z,102351.25
2022-10-11T05:20:28.577Z,102350.36
2022-10-11T05:22:59.253Z,102351.14
2022-10-11T05:25:29.935Z,102355.92
2022-10-11T05:28:00.624Z,102355.37
2022-10-11T05:30:31.281Z,102356.82
2022-10-11T05:33:02.089Z,102358.42
2022-10-11T05:35:32.643Z,102356.52
2022-10-11T05:38:03.361Z,102358.22
2022-10-11T05:40:34.028Z,102360.42
2022-10-11T05:43:04.737Z,102357.18
2022-10-11T05:45:35.449Z,102352.64
2022-10-11T05:48:06.128Z,102357.03
2022-10-11T05:50:36.828Z,102363.24
2022-10-11T05:53:07.495Z,102368.94
2022-10-11T05:55:38.165Z,102372.89
2022-10-11T05:58:08.871Z,102375.20
2022-10-11T06:00:39.570Z,102378.52
2022-10-11T06:03:10.293Z,102382.64
2022-10-11T06:05:40.960Z,102381.43
2022-10-11T06:08:11.660Z,102383.08
2022-10-11T06:10:42.342Z,102383.72
2022-10-11T06:13:13.124Z,102387.64
2022-10-11T06:15:43.723Z,102387.04
2022-10-11T06:18:14.423Z,102387.94
2022-10-11T06:20:45.106Z,102390.46
2022-10-11T06:23:15.799Z,102392.72
2022-10-11T06:25:46.480Z,102395.12
2022-10-11T06:28:17.245Z,102399.56
2022-10-11T06:30:47.850Z,102402.87
2022-10-11T06:33:18.600Z,102408.16
2022-10-11T06:35:49.234Z,102409.41
2022-10-11T06:38:19.931Z,102414.33
2022-10-11T06:40:50.609Z,102418.07
2022-10-11T06:43:21.376Z,102419.03
2022-10-11T06:45:51.982Z,102420.28
2022-10-11T06:48:22.700Z,102422.20
2022-10-11T06:51:00.053Z,102425.77
2022-10-11T06:53:23.989Z,102428.84
2022-10-11T06:55:54.661Z,102428.57
2022-10-11T06:58:25.426Z,102425.63
2022-10-11T07:00:56.129Z,102428.33
2022-10-11T07:03:26.664Z,102432.70
2022-10-11T07:06:02.114Z,102433.73
2022-10-11T07:08:28.001Z,102439.91
2022-10-11T07:10:58.671Z,102445.87
2022-10-11T07:13:29.335Z,102448.80
2022-10-11T07:16:00.278Z,102450.89
2022-10-11T07:18:30.667Z,102450.84
2022-10-11T07:21:01.321Z,102452.35
2022-10-11T07:23:31.977Z,102448.21
2022-10-11T07:26:03.028Z,102457.25
2022-10-11T07:28:33.416Z,102462.18
2022-10-11T07:31:03.984Z,102464.10
2022-10-11T07:33:34.623Z,102464.68
2022-10-11T07:36:05.214Z,102467.24
2022-10-11T07:38:35.349Z,102464.96
2022-10-11T07:41:06.023Z,102466.74
2022-10-11T07:43:36.697Z,102464.73
2022-10-11T07:46:07.940Z,102463.06
2022-10-11T07:48:38.046Z,102467.51
2022-10-11T07:51:08.809Z,102470.20
2022-10-11T07:53:39.081Z,102472.55
2022-10-11T07:56:09.757Z,102472.54
2022-10-11T07:58:40.064Z,102471.68
2022-10-11T08:01:10.886Z,102475.99
2022-10-11T08:03:41.396Z,102483.36
2022-10-11T08:06:12.055Z,102486.17
2022-10-11T08:08:42.649Z,102488.87
2022-10-11T08:11:13.355Z,102486.54
2022-10-11T08:13:43.921Z,102487.60
2022-10-11T08:16:14.562Z,102491.91
2022-10-11T08:18:45.187Z,102493.49
2022-10-11T08:21:15.917Z,102497.13
2022-10-11T08:23:46.513Z,102500.19
2022-10-11T08:26:17.107Z,102500.82
2022-10-11T08:28:47.772Z,102504.08
2022-10-11T08:31:18.320Z,102506.21
2022-10-11T08:33:48.937Z,102509.42
2022-10-11T08:36:19.566Z,102511.53
2022-10-11T08:38:50.134Z,102511.14
2022-10-11T08:41:20.776Z,102512.13
2022-10-11T08:43:51.336Z,102512.17
2022-10-11T08:46:21.952Z,102513.68
2022-10-11T08:48:52.631Z,102515.14
2022-10-11T08:51:23.235Z,102518.89
2022-10-11T08:53:53.726Z,102514.68
2022-10-11T08:56:24.313Z,102513.06
2022-10-11T08:58:54.934Z,102522.58
2022-10-11T09:01:25.583Z,102520.61
2022-10-11T09:03:56.078Z,102517.90
2022-10-11T09:06:26.741Z,102518.58
2022-10-11T09:08:57.264Z,102518.57
2022-10-11T09:11:27.817Z,102518.51
2022-10-11T09:13:58.389Z,102516.87
2022-10-11T09:16:29.125Z,102520.42
2022-10-11T09:18:59.556Z,102522.78
2022-10-11T09:21:30.127Z,102523.88
2022-10-11T09:24:00.821Z,102525.90
2022-10-11T09:26:30.981Z,102524.40
2022-10-11T09:29:01.739Z,102528.27
2022-10-11T09:31:32.136Z,102531.30
2022-10-11T09:34:02.774Z,102530.33
2022-10-11T09:36:33.341Z,102529.96
2022-10-11T09:39:06.644Z,102531.77
2022-10-11T09:41:34.352Z,102533.42
2022-10-11T09:44:04.869Z,102533.55
2022-10-11T09:46:35.415Z,102532.83
2022-10-11T09:49:05.971Z,102534.93
2022-10-11T09:51:36.506Z,102535.57
2022-10-11T09:54:07.058Z,102536.87
2022-10-11T09:56:37.595Z,102538.69
2022-10-11T09:59:08.147Z,102540.63
2022-10-11T10:01:38.817Z,102543.16
2022-10-11T10:04:09.343Z,102545.34
2022-10-11T10:06:39.862Z,102546.73
2022-10-11T10:09:10.260Z,102545.29
2022-10-11T10:11:40.769Z,102543.66
2022-10-11T10:14:11.341Z,102543.57
2022-10-11T10:16:41.832Z,102546.93
2022-10-11T10:19:12.339Z,102548.78
2022-10-11T10:21:42.854Z,102545.42
2022-10-11T10:24:13.389Z,102545.23
2022-10-11T10:26:43.913Z,102549.78
2022-10-11T10:29:14.414Z,102551.61
2022-10-11T10:32:12.342Z,102550.98
2022-10-11T10:34:15.432Z,102551.64
2022-10-11T10:36:46.056Z,102552.82
2022-10-11T10:39:16.413Z,102554.03
2022-10-11T10:41:46.880Z,102550.57
2022-10-11T10:44:17.346Z,102551.23
2022-10-11T10:46:47.936Z,102547.33
2022-10-11T10:49:41.633Z,102544.88
2022-10-11T10:51:48.769Z,102542.85
2022-10-11T10:54:19.238Z,102540.80
2022-10-11T10:56:49.707Z,102541.63
2022-10-11T10:59:20.167Z,102539.34
2022-10-11T11:01:50.752Z,102540.40
2022-10-11T11:04:21.107Z,102542.95
2022-10-11T11:06:51.791Z,102540.65
2022-10-11T11:09:21.902Z,102537.56
2022-10-11T11:11:52.090Z,102533.69
2022-10-11T11:14:22.530Z,102538.42
2022-10-11T11:16:53.045Z,102539.56
2022-10-11T11:19:23.573Z,102540.47
2022-10-11T11:21:54.088Z,102531.26
2022-10-11T11:24:24.626Z,102532.80
2022-10-11T11:26:55.081Z,102537.23
2022-10-11T11:29:25.594Z,102532.87
2022-10-11T11:31:56.012Z,102529.07
2022-10-11T11:34:26.495Z,102526.87
2022-10-11T11:36:56.940Z,102522.55
2022-10-11T11:39:27.446Z,102518.23
2022-10-11T11:41:57.852Z,102518.57
2022-10-11T11:44:28.341Z,102518.19
2022-10-11T11:46:58.767Z,102514.84
2022-10-11T11:49:29.190Z,102515.60
2022-10-11T11:51:59.634Z,102514.23
2022-10-11T11:54:29.798Z,102511.26
2022-10-11T11:57:00.254Z,102502.14
2022-10-11T11:59:30.694Z,102504.14
2022-10-11T12:02:01.286Z,102494.78
2022-10-11T12:04:31.563Z,102498.22
2022-10-11T12:07:15.847Z,102498.12
2022-10-11T12:09:32.471Z,102495.71
2022-10-11T12:12:02.925Z,102492.50
2022-10-11T12:14:33.381Z,102494.87
2022-10-11T12:17:03.803Z,102493.39
2022-10-11T12:19:34.260Z,102488.55
2022-10-11T12:22:04.750Z,102490.01
2022-10-11T12:24:35.163Z,102490.17
2022-10-11T12:27:05.608Z,102484.77
2022-10-11T12:29:36.135Z,102480.58
2022-10-11T12:32:06.541Z,102481.59
2022-10-11T12:34:37.053Z,102480.70
2022-10-11T12:37:07.444Z,102476.92
2022-10-11T12:39:37.808Z,102479.05
2022-10-11T12:42:08.255Z,102480.13
2022-10-11T12:44:38.706Z,102478.11
2022-10-11T12:47:09.152Z,102473.99
2022-10-11T12:49:39.571Z,102476.69
2022-10-11T12:52:10.082Z,102473.88
2022-10-11T12:54:40.451Z,102474.35
2022-10-11T12:57:12.376Z,102472.29
2022-10-11T12:59:41.316Z,102474.59
2022-10-11T13:02:11.752Z,102468.65
2022-10-11T13:04:42.171Z,102463.71
2022-10-11T13:07:12.663Z,102459.46
2022-10-11T13:09:46.719Z,102458.39
2022-10-11T13:12:13.281Z,102452.32
2022-10-11T13:14:43.618Z,102451.33
2022-10-11T13:17:14.040Z,102452.20
2022-10-11T13:19:44.447Z,102451.01
2022-10-11T13:22:14.862Z,102450.10
2022-10-11T13:24:45.303Z,102448.23
2022-10-11T13:27:15.672Z,102449.81
2022-10-11T13:29:46.079Z,102445.69
2022-10-11T13:32:16.556Z,102439.07
2022-10-11T13:34:47.014Z,102436.25
2022-10-11T13:37:17.423Z,102440.66
2022-10-11T13:39:47.751Z,102439.19
2022-10-11T13:42:18.148Z,102439.32
2022-10-11T13:44:48.554Z,102436.68
2022-10-11T13:47:19.034Z,102434.91
2022-10-11T13:49:49.403Z,102436.05
2022-10-11T13:52:19.843Z,102433.37
2022-10-11T13:54:50.134Z,102434.33
2022-10-11T13:57:20.523Z,102436.41
2022-10-11T13:59:50.926Z,102435.94
2022-10-11T14:02:21.325Z,102431.64
2022-10-11T14:04:51.717Z,102430.73
2022-10-11T14:07:22.131Z,102431.43
2022-10-11T14:09:52.517Z,102431.36
2022-10-11T14:12:22.905Z,102428.57
2022-10-11T14:14:53.296Z,102426.50
2022-10-11T14:17:23.804Z,102426.65
2022-10-11T14:19:54.091Z,102423.44
2022-10-11T14:22:24.440Z,102422.40
2022-10-11T14:24:54.811Z,102423.93
2022-10-11T14:27:25.207Z,102423.86
2022-10-11T14:30:20.150Z,102422.30
2022-10-11T14:32:25.983Z,102423.61
2022-10-11T14:34:56.333Z,102422.30
2022-10-11T14:37:26.714Z,102428.31
2022-10-11T14:39:57.111Z,102427.32
2022-10-11T14:42:27.514Z,102428.40
2022-10-11T14:44:57.894Z,102425.98
2022-10-11T14:47:28.315Z,102425.16
2022-10-11T14:49:58.652Z,102428.04
2022-10-11T14:52:29.063Z,102429.18
2022-10-11T14:54:59.434Z,102432.39
2022-10-11T14:57:29.847Z,102432.59
2022-10-11T15:00:00.235Z,102430.45
2022-10-11T15:02:30.612Z,102428.20
2022-10-11T15:05:00.990Z,102429.24
2022-10-11T15:07:31.401Z,102425.29
2022-10-11T15:10:01.813Z,102426.32
2022-10-11T15:12:32.168Z,102427.81
2022-10-11T15:15:02.584Z,102427.06
2022-10-11T15:17:32.958Z,102430.29
2022-10-11T15:20:03.325Z,102428.56
2022-10-11T15:22:33.709Z,102430.28
2022-10-11T15:25:04.098Z,102427.91
2022-10-11T15:27:34.520Z,102428.04
2022-10-11T15:30:04.892Z,102427.67
2022-10-11T15:32:35.330Z,102425.00
2022-10-11T15:35:05.814Z,102423.42
2022-10-11T15:37:37.470Z,102425.15
2022-10-11T15:40:06.489Z,102421.94
2022-10-11T15:42:36.885Z,102422.49
2022-10-11T15:45:07.286Z,102423.62
2022-10-11T15:47:37.676Z,102421.70
2022-10-11T15:50:08.062Z,102420.66
2022-10-11T15:52:38.463Z,102418.44
2022-10-11T15:55:08.841Z,102412.28
2022-10-11T15:57:39.345Z,102413.66
2022-10-11T16:00:09.675Z,102414.12
2022-10-11T16:02:40.055Z,102415.50
2022-10-11T16:05:10.429Z,102412.76
2022-10-11T16:07:40.828Z,102410.61
2022-10-11T16:10:11.221Z,102412.58
2022-10-11T16:12:41.757Z,102410.27
2022-10-11T16:15:12.138Z,102411.06
2022-10-11T16:17:42.447Z,102410.10
2022-10-11T16:20:12.831Z,102414.15
2022-10-11T16:22:43.324Z,102418.34
2022-10-11T16:25:13.643Z,102419.05
2022-10-11T16:27:44.168Z,102418.58
2022-10-11T16:30:14.583Z,102420.12
2022-10-11T16:32:44.897Z,102419.65
2022-10-11T16:35:15.337Z,102421.41
2022-10-11T16:37:45.743Z,102423.19
2022-10-11T16:40:16.167Z,102421.74
2022-10-11T16:42:46.593Z,102419.22
2022-10-11T16:45:17.018Z,102424.35
2022-10-11T16:47:47.460Z,102425.39
2022-10-11T16:50:17.855Z,102424.59
2022-10-11T16:52:48.296Z,102424.32
2022-10-11T16:55:18.742Z,102422.24
2022-10-11T16:57:49.171Z,102419.35
2022-10-11T17:00:19.599Z,102422.77
2022-10-11T17:02:50.152Z,102424.79
2022-10-11T17:05:20.462Z,102425.43
2022-10-11T17:07:50.990Z,102426.21
2022-10-11T17:10:21.380Z,102427.73
2022-10-11T17:12:51.828Z,102429.81
2022-10-11T17:15:22.300Z,102430.50
2022-10-11T17:17:52.770Z,102431.23
2022-10-11T17:20:23.148Z,102429.95
2022-10-11T17:22:53.653Z,102430.72
2022-10-11T17:25:24.230Z,102430.80
2022-10-11T17:27:54.706Z,102428.05
2022-10-11T17:30:24.935Z,102429.19
2022-10-11T17:32:55.265Z,102429.73
2022-10-11T17:35:26.136Z,102431.43
2022-10-11T17:37:57.086Z,102434.88
2022-10-11T17:40:27.167Z,102436.10
2022-10-11T17:42:57.622Z,102433.69
2022-10-11T17:45:28.085Z,102433.35
2022-10-11T17:47:58.393Z,102433.53
2022-10-11T17:50:28.638Z,102432.96
2022-10-11T17:52:58.991Z,102433.46
2022-10-11T17:55:29.680Z,102430.70
2022-10-11T17:57:59.804Z,102427.04
2022-10-11T18:00:29.805Z,102428.07
2022-10-11T18:03:00.326Z,102426.20
2022-10-11T18:05:30.850Z,102428.96
2022-10-11T18:08:01.559Z,102428.00
2022-10-11T18:10:31.617Z,102429.72
2022-10-11T18:13:06.338Z,102426.48
2022-10-11T18:15:32.814Z,102425.71
2022-10-11T18:18:03.295Z,102428.03
2022-10-11T18:20:33.851Z,102429.26
2022-10-11T18:23:04.770Z,102427.90
2022-10-11T18:25:35.500Z,102429.70
2022-10-11T18:28:06.341Z,102432.55
2022-10-11T18:30:36.579Z,102435.90
2022-10-11T18:33:06.775Z,102433.57
2022-10-11T18:35:37.174Z,102435.60
2022-10-11T18:38:07.539Z,102433.46
2022-10-11T18:40:39.620Z,102433.11
2022-10-11T18:43:09.173Z,102428.73
2022-10-11T18:45:39.558Z,102428.58
2022-10-11T18:48:10.092Z,102423.57
2022-10-11T18:50:40.900Z,102425.33
2022-10-11T18:53:11.651Z,102420.67
2022-10-11T18:55:41.712Z,102420.74
2022-10-11T18:58:11.920Z,102420.30
2022-10-11T19:00:42.106Z,102422.13
2022-10-11T19:03:12.828Z,102419.48
2022-10-11T19:05:43.090Z,102417.67
2022-10-11T19:08:13.461Z,102417.75
2022-10-11T19:10:43.625Z,102416.44
2022-10-11T19:13:13.767Z,102415.24
2022-10-11T19:15:44.405Z,102416.39
2022-10-11T19:18:18.290Z,102418.90
2022-10-11T19:20:45.160Z,102420.23
2022-10-11T19:23:15.636Z,102420.16
2022-10-11T19:25:46.080Z,102420.86
2022-10-11T19:28:16.575Z,102422.36
2022-10-11T19:30:47.084Z,102421.60
2022-10-11T19:33:17.396Z,102423.02
2022-10-11T19:35:47.879Z,102424.07
2022-10-11T19:38:18.516Z,102422.27
2022-10-11T19:40:49.057Z,102423.05
2022-10-11T19:43:19.593Z,102421.48
2022-10-11T19:45:50.119Z,102422.08
2022-10-11T19:48:20.697Z,102425.14
2022-10-11T19:50:51.261Z,102424.62
2022-10-11T19:53:21.753Z,102423.74
2022-10-11T19:55:52.329Z,102424.84
2022-10-11T19:58:22.879Z,102418.95
2022-10-11T20:00:53.488Z,102419.54
2022-10-11T20:03:24.017Z,102420.10
2022-10-11T20:05:54.601Z,102417.80
2022-10-11T20:08:25.139Z,102418.90
2022-10-11T20:10:55.421Z,102415.03
2022-10-11T20:13:25.926Z,102410.33
2022-10-11T20:15:56.538Z,102409.37
2022-10-11T20:18:27.134Z,102410.65
2022-10-11T20:20:57.662Z,102411.83
2022-10-11T20:23:28.325Z,102412.20
2022-10-11T20:25:58.799Z,102412.82
2022-10-11T20:28:29.434Z,102411.40
2022-10-11T20:30:59.986Z,102407.73
2022-10-11T20:33:30.639Z,102405.86
2022-10-11T20:36:00.945Z,102406.31
2022-10-11T20:38:31.501Z,102404.71
2022-10-11T20:41:02.135Z,102407.86
2022-10-11T20:43:32.738Z,102410.35
2022-10-11T20:46:03.350Z,102411.26
2022-10-11T20:48:33.961Z,102411.77
2022-10-11T20:51:04.570Z,102410.38
2022-10-11T20:53:34.925Z,102412.92
2022-10-11T20:56:05.522Z,102410.38
2022-10-11T20:58:36.268Z,102413.16
2022-10-11T21:01:06.780Z,102414.26
2022-10-11T21:03:37.391Z,102410.46
2022-10-11T21:06:07.718Z,102410.88
2022-10-11T21:08:38.270Z,102411.25
2022-10-11T21:11:08.907Z,102409.15
2022-10-11T21:13:39.506Z,102413.28
2022-10-11T21:16:09.857Z,102416.45
2022-10-11T21:18:40.509Z,102413.05
2022-10-11T21:21:11.152Z,102411.17
2022-10-11T21:23:41.828Z,102414.24
2022-10-11T21:26:12.425Z,102415.00
2022-10-11T21:28:43.044Z,102416.01
2022-10-11T21:31:13.651Z,102414.81
2022-10-11T21:33:44.284Z,102416.40
2022-10-11T21:36:14.896Z,102417.41
2022-10-11T21:38:45.525Z,102421.67
2022-10-11T21:41:16.211Z,102418.38
2022-10-11T21:43:46.818Z,102423.75
2022-10-11T21:46:17.448Z,102425.06
2022-10-11T21:48:48.211Z,102422.75
2022-10-11T21:51:18.737Z,102422.16
2022-10-11T21:53:49.423Z,102419.82
2022-10-11T21:56:20.148Z,102421.67
2022-10-11T21:58:50.165Z,102424.07
2022-10-11T22:01:20.817Z,102423.31
2022-10-11T22:03:51.423Z,102422.48
2022-10-11T22:06:21.797Z,102421.76
2022-10-11T22:08:52.442Z,102422.14
2022-10-11T22:11:23.147Z,102423.35
2022-10-11T22:13:53.767Z,102423.94
2022-10-11T22:16:24.156Z,102421.32
2022-10-11T22:18:54.485Z,102423.24
2022-10-11T22:21:25.135Z,102422.94
2022-10-11T22:23:55.867Z,102423.21
2022-10-11T22:26:26.198Z,102422.51
2022-10-11T22:28:56.966Z,102420.67
2022-10-11T22:31:27.219Z,102419.44
2022-10-11T22:33:57.891Z,102419.34
2022-10-11T22:36:28.499Z,102422.56
2022-10-11T22:38:59.176Z,102417.91
2022-10-11T22:41:29.801Z,102419.75
2022-10-11T22:44:00.472Z,102421.68
2022-10-11T22:46:31.133Z,102419.70
2022-10-11T22:49:01.445Z,102417.89
2022-10-11T22:51:32.085Z,102420.35
2022-10-11T22:54:02.697Z,102417.76
2022-10-11T22:56:33.083Z,102419.39
2022-10-11T22:59:03.482Z,102417.08
2022-10-11T23:01:33.780Z,102416.82
2022-10-11T23:04:04.276Z,102414.00
2022-10-11T23:06:34.869Z,102416.44
2022-10-11T23:09:05.486Z,102418.30
2022-10-11T23:11:36.226Z,102421.50
2022-10-11T23:14:06.261Z,102418.31
2022-10-11T23:16:36.678Z,102413.62
2022-10-11T23:19:07.390Z,102411.69
2022-10-11T23:21:38.078Z,102410.65
2022-10-11T23:24:08.713Z,102410.02
2022-10-11T23:26:39.261Z,102410.28
2022-10-11T23:29:10.040Z,102409.91
2022-10-11T23:31:40.769Z,102406.09
2022-10-11T23:34:10.878Z,102409.27
2022-10-11T23:36:41.322Z,102412.11
2022-10-11T23:39:11.920Z,102411.61
2022-10-11T23:41:42.173Z,102412.10
2022-10-11T23:44:12.764Z,102412.77
2022-10-11T23:46:43.118Z,102415.82
2022-10-11T23:49:13.564Z,102418.28
2022-10-11T23:51:44.261Z,102419.31
2022-10-11T23:54:14.661Z,102418.25
2022-10-11T23:56:45.350Z,102418.85
2022-10-11T23:59:15.632Z,102416.01
